Accueil
METAR-TAF:

METAR-TAF

Aéroports :

Rota, Espagne

latitude: 36-39N, longitude: 006-21W, altitude: 26 m

Observation

Le bulletin a été fait il y a 42 minutes, à 08:00 UTC
Vent 7 kt de est/sud-est, variant entre est et sud/sud-est
Température 16°C
Humidité 68%
Pression 1019 hPa
Visibilité 10 km ou plus
pas de nuages en-dessous de 1500 mètres et pas de cumulonimbus.

METAR: LERT 090800Z 12007KT 090V150 CAVOK 16/10 Q1019 NOSIG

Heure: 10:42 (08:42 UTC)

Prévision

Le bulletin a été fait il y a 42 minutes, à 08:00 UTC
Prévision valable du 09 à 09 UTC au 09 à 18 UTC
Vent 10 kt de est/sud-est
Visibilité 10 km ou plus
Nuages épars à une hauteur de 4500 ft
Probabilité 30% :
Temporairement
du 09 à 12 UTC au 09 à 15 UTC
Visibilité: 4000 m
pluie faible

TAF: LERT 090800Z 0909/0918 12010KT 9999 SCT045 PROB30 TEMPO 0912/0915 4000 -RA

Observations et prévisions météorologiques de plus de 4000 aéroports (messages METAR et TAF).

Les stations disponibles sont représentées par des disques jaunes et rouges sur la carte.

Passer la souris dessus pour voir le nom de la station.

Cliquer dessus pour voir les observations et prévisions météorologiques.

Pour changer de carte: cliquez sur les boutons verts avec une croix noire pour zoomer, sur le bouton vert avec un tiret pour effectuer un zoom arrière, ou sur les flèches vertes pour les cartes adjacentes.


METAR-TAF: